Glacier Natl Park, Montana
Current Conditions -  °F | °C
As of 7:27 AM on Friday 31 Oct 2014 (Local Time) from KGPI Reporting Station
Scattered Clouds Scattered Clouds  
Wind Chill: 35°   Ceiling: Unl
Heat Index: 35°   Visibility: 7mi
Dew Point: 34°   Wind: 0mph
Humidity: 96%   Direction: NA
Pressure: 29.81"   Gusts: NA
Location:  48.58°N, 113.67°W
Report Text: KGPI 311327Z AUTO 00000KT 7SM SCT002 02/01 A2981 RMK AO2 VIS 2 1/2 NE T00170011
Loading
Personal Weather Stations






























Interactive Weather Map
Tropical Storm Tracking
New forecast layout! Learn more

10-Day Weather Forecast

Advertisements
Track Severe Weather on mobile